createdAt,value
2022-10-07T00:00:28.144Z,14.58
2022-10-07T00:02:54.634Z,14.63
2022-10-07T00:05:21.089Z,14.65
2022-10-07T00:07:47.661Z,14.69
2022-10-07T00:10:14.176Z,14.65
2022-10-07T00:12:40.653Z,14.59
2022-10-07T00:15:07.620Z,14.48
2022-10-07T00:17:34.092Z,14.43
2022-10-07T00:20:00.587Z,14.35
2022-10-07T00:22:27.114Z,14.35
2022-10-07T00:24:53.636Z,14.45
2022-10-07T00:27:20.149Z,14.40
2022-10-07T00:29:46.606Z,14.51
2022-10-07T00:32:13.096Z,14.58
2022-10-07T00:34:39.547Z,14.67
2022-10-07T00:37:06.124Z,14.51
2022-10-07T00:39:33.029Z,14.64
2022-10-07T00:41:59.699Z,14.59
2022-10-07T00:44:32.147Z,14.28
2022-10-07T00:47:08.559Z,14.31
2022-10-07T00:49:55.308Z,14.43
2022-10-07T00:52:24.163Z,14.43
2022-10-07T00:54:52.316Z,14.44
2022-10-07T00:57:28.080Z,14.42
2022-10-07T00:59:55.035Z,14.35
2022-10-07T01:02:23.447Z,14.24
2022-10-07T01:04:50.851Z,14.29
2022-10-07T01:07:18.226Z,14.36
2022-10-07T01:09:44.724Z,14.29
2022-10-07T01:12:17.106Z,14.13
2022-10-07T01:14:52.691Z,14.18
2022-10-07T01:17:44.556Z,14.18
2022-10-07T01:20:43.725Z,14.34
2022-10-07T01:23:38.283Z,14.39
2022-10-07T01:26:26.516Z,14.29
2022-10-07T01:28:59.479Z,14.22
2022-10-07T01:31:40.703Z,14.15
2022-10-07T01:34:07.739Z,14.11
2022-10-07T01:36:35.467Z,14.13
2022-10-07T01:39:04.795Z,14.20
2022-10-07T01:41:31.496Z,14.17
2022-10-07T01:43:58.749Z,14.13
2022-10-07T01:46:27.263Z,14.12
2022-10-07T01:48:54.757Z,14.03
2022-10-07T01:51:23.424Z,14.05
2022-10-07T01:54:12.515Z,14.02
2022-10-07T01:56:49.602Z,14.04
2022-10-07T01:59:59.290Z,14.09
2022-10-07T02:02:34.923Z,14.10
2022-10-07T02:05:23.938Z,14.07
2022-10-07T02:08:09.112Z,14.00
2022-10-07T02:10:58.114Z,13.95
2022-10-07T02:13:37.507Z,13.95
2022-10-07T02:16:23.387Z,13.95
2022-10-07T02:18:51.690Z,13.97
2022-10-07T02:21:27.708Z,14.00
2022-10-07T02:23:55.680Z,14.06
2022-10-07T02:26:23.169Z,14.05
2022-10-07T02:28:52.507Z,14.02
2022-10-07T02:31:23.462Z,14.09
2022-10-07T02:33:50.827Z,14.19
2022-10-07T02:36:21.915Z,14.26
2022-10-07T02:38:48.954Z,14.27
2022-10-07T02:41:26.456Z,14.27
2022-10-07T02:43:54.834Z,14.34
2022-10-07T02:46:29.395Z,14.34
2022-10-07T02:49:08.451Z,14.65
2022-10-07T02:51:52.840Z,14.71
2022-10-07T02:54:21.380Z,14.80
2022-10-07T02:56:50.022Z,14.86
2022-10-07T02:59:17.168Z,14.75
2022-10-07T03:01:46.843Z,14.89
2022-10-07T03:04:13.570Z,14.90
2022-10-07T03:06:40.104Z,14.88
2022-10-07T03:09:06.590Z,15.06
2022-10-07T03:11:33.044Z,15.21
2022-10-07T03:13:59.483Z,15.20
2022-10-07T03:16:26.842Z,15.23
2022-10-07T03:18:53.838Z,15.15
2022-10-07T03:21:20.572Z,15.29
2022-10-07T03:23:50.662Z,15.39
2022-10-07T03:26:17.153Z,15.52
2022-10-07T03:28:43.807Z,15.56
2022-10-07T03:31:11.336Z,15.54
2022-10-07T03:33:39.528Z,15.52
2022-10-07T03:36:07.075Z,15.37
2022-10-07T03:38:34.329Z,15.47
2022-10-07T03:41:01.176Z,15.50
2022-10-07T03:43:28.357Z,15.54
2022-10-07T03:45:54.839Z,15.61
2022-10-07T03:48:21.325Z,15.71
2022-10-07T03:50:49.700Z,15.59
2022-10-07T03:53:16.483Z,15.59
2022-10-07T03:55:42.954Z,15.66
2022-10-07T03:58:10.517Z,15.61
2022-10-07T04:00:37.023Z,15.50
2022-10-07T04:03:03.603Z,15.57
2022-10-07T04:05:32.032Z,15.58
2022-10-07T04:07:58.916Z,15.59
2022-10-07T04:10:25.674Z,15.72
2022-10-07T04:12:52.389Z,15.77
2022-10-07T04:15:20.121Z,15.76
2022-10-07T04:17:49.976Z,15.65
2022-10-07T04:20:16.723Z,15.68
2022-10-07T04:22:43.205Z,15.62
2022-10-07T04:25:12.051Z,15.70
2022-10-07T04:27:51.272Z,15.73
2022-10-07T04:30:18.571Z,15.74
2022-10-07T04:32:45.081Z,15.82
2022-10-07T04:35:11.639Z,15.84
2022-10-07T04:37:38.146Z,15.93
2022-10-07T04:40:04.996Z,16.00
2022-10-07T04:42:31.523Z,15.92
2022-10-07T04:44:58.156Z,15.91
2022-10-07T04:47:24.624Z,15.84
2022-10-07T04:49:51.208Z,16.03
2022-10-07T04:52:17.981Z,15.99
2022-10-07T04:54:44.455Z,15.97
2022-10-07T04:57:10.996Z,16.02
2022-10-07T04:59:42.458Z,16.01
2022-10-07T05:02:09.531Z,16.01
2022-10-07T05:04:36.074Z,15.89
2022-10-07T05:07:02.925Z,16.07
2022-10-07T05:09:29.413Z,15.98
2022-10-07T05:11:56.069Z,16.13
2022-10-07T05:14:23.284Z,16.19
2022-10-07T05:16:50.240Z,16.15
2022-10-07T05:19:16.718Z,16.14
2022-10-07T05:21:43.743Z,16.19
2022-10-07T05:24:10.796Z,16.29
2022-10-07T05:26:37.313Z,16.34
2022-10-07T05:29:04.195Z,16.41
2022-10-07T05:31:30.878Z,16.37
2022-10-07T05:33:57.481Z,16.37
2022-10-07T05:36:24.205Z,16.35
2022-10-07T05:38:53.916Z,16.30
2022-10-07T05:41:20.447Z,16.16
2022-10-07T05:43:46.923Z,15.95
2022-10-07T05:46:15.381Z,15.77
2022-10-07T05:48:45.618Z,15.71
2022-10-07T05:51:12.223Z,15.78
2022-10-07T05:53:38.649Z,16.00
2022-10-07T05:56:06.643Z,16.16
2022-10-07T05:58:33.116Z,16.19
2022-10-07T06:01:04.888Z,16.16
2022-10-07T06:03:33.361Z,16.04
2022-10-07T06:05:59.998Z,16.23
2022-10-07T06:08:27.139Z,16.25
2022-10-07T06:10:53.695Z,16.34
2022-10-07T06:13:20.218Z,16.42
2022-10-07T06:15:46.725Z,16.47
2022-10-07T06:18:13.442Z,16.52
2022-10-07T06:20:39.951Z,16.50
2022-10-07T06:23:06.433Z,16.58
2022-10-07T06:25:33.603Z,16.67
2022-10-07T06:28:00.261Z,16.75
2022-10-07T06:30:27.597Z,16.42
2022-10-07T06:32:54.164Z,16.47
2022-10-07T06:35:20.666Z,16.45
2022-10-07T06:37:47.651Z,16.45
2022-10-07T06:40:14.538Z,16.58
2022-10-07T06:42:40.991Z,16.65
2022-10-07T06:45:09.855Z,16.65
2022-10-07T06:47:36.340Z,16.67
2022-10-07T06:50:02.850Z,16.83
2022-10-07T06:52:30.044Z,16.73
2022-10-07T06:54:56.904Z,16.73
2022-10-07T07:00:10.759Z,16.70
2022-10-07T07:02:37.446Z,16.43
2022-10-07T07:05:04.285Z,16.40
2022-10-07T07:07:31.036Z,16.49
2022-10-07T07:09:57.538Z,16.46
2022-10-07T07:12:24.008Z,16.49
2022-10-07T07:14:51.376Z,16.71
2022-10-07T07:17:18.005Z,16.47
2022-10-07T07:19:45.142Z,16.45
2022-10-07T07:22:11.919Z,16.60
2022-10-07T07:24:38.420Z,16.97
2022-10-07T07:27:05.026Z,17.03
2022-10-07T07:29:31.550Z,17.06
2022-10-07T07:31:58.023Z,17.23
2022-10-07T07:34:24.611Z,17.17
2022-10-07T07:36:51.091Z,17.02
2022-10-07T07:39:18.475Z,17.22
2022-10-07T07:41:45.689Z,17.03
2022-10-07T07:44:13.794Z,16.79
2022-10-07T07:46:43.085Z,16.72
2022-10-07T07:49:11.506Z,16.99
2022-10-07T07:51:39.135Z,17.25
2022-10-07T07:54:05.769Z,17.45
2022-10-07T07:56:32.234Z,17.46
2022-10-07T07:59:00.212Z,17.55
2022-10-07T08:01:26.855Z,17.53
2022-10-07T08:03:53.805Z,17.68
2022-10-07T08:06:21.058Z,17.70
2022-10-07T08:08:47.929Z,17.73
2022-10-07T08:11:17.140Z,17.81
2022-10-07T08:13:43.989Z,18.10
2022-10-07T08:16:11.956Z,18.27
2022-10-07T08:18:39.871Z,18.43
2022-10-07T08:21:06.382Z,18.66
2022-10-07T08:23:33.873Z,18.51
2022-10-07T08:26:00.749Z,18.83
2022-10-07T08:28:45.801Z,19.08
2022-10-07T08:31:30.946Z,18.93
2022-10-07T08:34:16.095Z,19.22
2022-10-07T08:37:01.232Z,19.29
2022-10-07T08:39:46.131Z,19.30
2022-10-07T08:42:37.661Z,19.39
2022-10-07T08:45:29.845Z,19.55
2022-10-07T08:48:21.290Z,19.60
2022-10-07T08:51:20.691Z,19.68
2022-10-07T08:54:05.855Z,19.63
2022-10-07T08:56:51.349Z,19.56
2022-10-07T08:59:39.725Z,19.71
2022-10-07T09:02:52.150Z,19.79
2022-10-07T09:05:40.312Z,19.82
2022-10-07T09:08:32.447Z,19.87
2022-10-07T09:11:20.383Z,19.92
2022-10-07T09:14:25.900Z,19.70
2022-10-07T09:17:30.505Z,19.70
2022-10-07T09:20:20.311Z,19.78
2022-10-07T09:23:07.025Z,19.45
2022-10-07T09:25:52.634Z,19.31
2022-10-07T09:28:37.910Z,19.22
2022-10-07T09:31:24.278Z,18.89
2022-10-07T09:34:25.351Z,19.00
2022-10-07T09:37:16.071Z,19.13
2022-10-07T09:40:27.525Z,19.08
2022-10-07T09:43:12.789Z,18.88
2022-10-07T09:45:58.977Z,18.95
2022-10-07T09:48:50.690Z,19.17
2022-10-07T09:51:35.940Z,19.21
2022-10-07T09:54:21.162Z,19.17
2022-10-07T09:57:09.715Z,18.92
2022-10-07T10:00:17.417Z,18.91
2022-10-07T10:03:06.824Z,18.92
2022-10-07T10:06:00.101Z,18.96
2022-10-07T10:08:45.782Z,18.94
2022-10-07T10:11:31.250Z,18.87
2022-10-07T10:14:41.092Z,18.89
2022-10-07T10:17:28.927Z,18.52
2022-10-07T10:20:35.821Z,18.54
2022-10-07T10:23:33.722Z,18.75
2022-10-07T10:26:52.087Z,18.84
2022-10-07T10:29:50.671Z,18.74
2022-10-07T10:32:48.281Z,18.78
2022-10-07T10:35:50.795Z,18.89
2022-10-07T10:38:55.387Z,18.70
2022-10-07T10:41:46.739Z,18.68
2022-10-07T10:44:55.507Z,18.85
2022-10-07T10:47:53.320Z,18.84
2022-10-07T10:50:47.295Z,18.88
2022-10-07T10:53:39.733Z,18.84
2022-10-07T10:56:33.637Z,18.89
2022-10-07T11:00:07.407Z,18.94
2022-10-07T11:03:22.753Z,18.87
2022-10-07T11:06:11.062Z,18.90
2022-10-07T11:08:57.880Z,18.83
2022-10-07T11:11:43.558Z,18.74
2022-10-07T11:14:32.472Z,18.92
2022-10-07T11:17:22.032Z,19.07
2022-10-07T11:20:35.740Z,19.08
2022-10-07T11:23:27.685Z,19.18
2022-10-07T11:26:21.458Z,19.13
2022-10-07T11:29:23.383Z,18.67
2022-10-07T11:32:16.159Z,18.87
2022-10-07T11:35:27.439Z,19.08
2022-10-07T11:38:12.168Z,19.25
2022-10-07T11:40:59.681Z,19.35
2022-10-07T11:43:51.690Z,19.22
2022-10-07T11:46:40.484Z,19.39
2022-10-07T11:49:32.013Z,19.17
2022-10-07T11:52:20.983Z,19.15
2022-10-07T11:55:09.778Z,19.23
2022-10-07T11:57:56.748Z,19.34
2022-10-07T12:00:42.210Z,19.29
2022-10-07T12:03:30.436Z,19.33
2022-10-07T12:06:15.756Z,19.22
2022-10-07T12:09:39.509Z,19.16
2022-10-07T12:12:25.064Z,19.27
2022-10-07T12:15:33.299Z,19.43
2022-10-07T12:18:24.794Z,19.41
2022-10-07T12:21:09.869Z,19.62
2022-10-07T12:24:10.107Z,19.57
2022-10-07T12:26:58.872Z,19.73
2022-10-07T12:29:53.783Z,19.50
2022-10-07T12:32:50.867Z,19.62
2022-10-07T12:35:44.358Z,19.59
2022-10-07T12:38:29.953Z,19.49
2022-10-07T12:41:22.643Z,19.52
2022-10-07T12:44:46.799Z,19.08
2022-10-07T12:47:33.134Z,19.16
2022-10-07T12:50:19.747Z,19.37
2022-10-07T12:53:05.186Z,19.60
2022-10-07T12:55:54.359Z,19.50
2022-10-07T12:58:52.002Z,19.58
2022-10-07T13:01:54.547Z,19.73
2022-10-07T13:05:19.018Z,19.86
2022-10-07T13:08:23.031Z,19.65
2022-10-07T13:11:44.281Z,19.55
2022-10-07T13:14:37.858Z,19.61
2022-10-07T13:17:44.405Z,19.36
2022-10-07T13:20:55.188Z,19.41
2022-10-07T13:23:40.057Z,19.74
2022-10-07T13:26:26.388Z,19.52
2022-10-07T13:29:26.158Z,19.59
2022-10-07T13:32:11.180Z,19.84
2022-10-07T13:34:57.956Z,19.88
2022-10-07T13:37:46.233Z,20.12
2022-10-07T13:40:32.158Z,20.40
2022-10-07T13:43:17.803Z,20.36
2022-10-07T13:46:02.915Z,20.63
2022-10-07T13:48:48.131Z,21.04
2022-10-07T13:51:36.907Z,21.40
2022-10-07T13:54:25.478Z,21.42
2022-10-07T13:57:13.548Z,21.44
2022-10-07T14:00:00.004Z,21.51
2022-10-07T14:02:46.500Z,21.36
2022-10-07T14:05:32.076Z,21.30
2022-10-07T14:08:23.539Z,21.28
2022-10-07T14:10:53.156Z,21.14
2022-10-07T14:13:19.483Z,21.43
2022-10-07T14:15:50.005Z,21.31
2022-10-07T14:18:17.100Z,21.59
2022-10-07T14:20:51.629Z,21.68
2022-10-07T14:23:29.734Z,21.79
2022-10-07T14:26:09.219Z,21.84
2022-10-07T14:28:40.245Z,21.66
2022-10-07T14:31:08.333Z,21.50
2022-10-07T14:33:48.521Z,21.39
2022-10-07T14:36:16.405Z,21.46
2022-10-07T14:38:44.558Z,21.44
2022-10-07T14:41:11.313Z,21.08
2022-10-07T14:43:38.978Z,21.25
2022-10-07T14:46:20.393Z,21.26
2022-10-07T14:48:47.896Z,21.09
2022-10-07T14:51:18.021Z,21.05
2022-10-07T14:53:45.744Z,21.11
2022-10-07T14:56:24.035Z,21.04
2022-10-07T14:58:50.551Z,20.97
2022-10-07T15:01:17.192Z,20.83
2022-10-07T15:03:43.741Z,20.74
2022-10-07T15:06:10.272Z,20.69
2022-10-07T15:08:36.762Z,20.58
2022-10-07T15:11:05.463Z,20.61
2022-10-07T15:13:32.083Z,20.71
2022-10-07T15:15:58.983Z,20.65
2022-10-07T15:18:25.578Z,20.61
2022-10-07T15:20:56.518Z,20.59
2022-10-07T15:23:23.098Z,20.66
2022-10-07T15:25:51.584Z,20.34
2022-10-07T15:28:18.296Z,20.52
2022-10-07T15:30:44.905Z,20.52
2022-10-07T15:33:11.422Z,20.35
2022-10-07T15:35:37.861Z,20.45
2022-10-07T15:38:04.550Z,20.53
2022-10-07T15:40:31.400Z,20.55
2022-10-07T15:42:57.977Z,20.36
2022-10-07T15:45:24.539Z,20.18
2022-10-07T15:47:52.563Z,20.33
2022-10-07T15:50:22.478Z,20.27
2022-10-07T15:52:49.078Z,20.25
2022-10-07T15:55:15.627Z,20.07
2022-10-07T15:57:42.086Z,20.12
2022-10-07T16:00:09.361Z,20.06
2022-10-07T16:02:35.978Z,19.94
2022-10-07T16:05:02.571Z,19.95
2022-10-07T16:07:29.030Z,20.07
2022-10-07T16:09:55.902Z,20.09
2022-10-07T16:12:22.386Z,20.10
2022-10-07T16:14:48.934Z,20.00
2022-10-07T16:17:15.400Z,20.05
2022-10-07T16:19:41.923Z,20.09
2022-10-07T16:22:08.367Z,19.98
2022-10-07T16:24:37.868Z,19.96
2022-10-07T16:27:04.651Z,19.75
2022-10-07T16:29:31.144Z,19.57
2022-10-07T16:31:59.181Z,19.59
2022-10-07T16:34:26.936Z,19.58
2022-10-07T16:36:54.330Z,19.47
2022-10-07T16:39:21.058Z,19.39
2022-10-07T16:41:48.498Z,19.08
2022-10-07T16:44:15.578Z,19.06
2022-10-07T16:46:42.483Z,19.01
2022-10-07T16:49:12.873Z,19.15
2022-10-07T16:51:39.548Z,19.03
2022-10-07T16:54:12.134Z,18.94
2022-10-07T16:56:41.021Z,18.83
2022-10-07T16:59:08.987Z,18.70
2022-10-07T17:01:37.054Z,18.70
2022-10-07T17:04:03.614Z,18.73
2022-10-07T17:06:30.755Z,18.57
2022-10-07T17:08:58.426Z,18.37
2022-10-07T17:11:25.243Z,18.38
2022-10-07T17:13:51.672Z,18.41
2022-10-07T17:16:18.654Z,18.41
2022-10-07T17:18:45.369Z,18.35
2022-10-07T17:21:12.095Z,18.23
2022-10-07T17:23:38.614Z,18.24
2022-10-07T17:26:05.750Z,18.24
2022-10-07T17:28:32.248Z,18.30
2022-10-07T17:31:06.556Z,18.21
2022-10-07T17:33:33.313Z,18.03
2022-10-07T17:36:04.372Z,17.77
2022-10-07T17:38:30.846Z,17.70
2022-10-07T17:40:57.802Z,17.58
2022-10-07T17:43:24.483Z,17.46
2022-10-07T17:45:51.159Z,17.56
2022-10-07T17:48:17.685Z,17.62
2022-10-07T17:50:44.150Z,17.71
2022-10-07T17:53:10.620Z,17.72
2022-10-07T17:55:37.063Z,17.61
2022-10-07T17:58:03.871Z,17.56
2022-10-07T18:00:30.399Z,17.52
2022-10-07T18:02:56.923Z,17.40
2022-10-07T18:05:23.389Z,17.44
2022-10-07T18:07:49.844Z,17.60
2022-10-07T18:10:16.327Z,17.74
2022-10-07T18:12:43.193Z,17.67
2022-10-07T18:15:10.114Z,17.52
2022-10-07T18:17:36.647Z,17.57
2022-10-07T18:20:04.371Z,17.66
2022-10-07T18:22:30.885Z,17.54
2022-10-07T18:24:57.366Z,17.32
2022-10-07T18:27:23.964Z,17.15
2022-10-07T18:29:50.519Z,17.11
2022-10-07T18:32:17.000Z,17.18
2022-10-07T18:34:43.456Z,17.29
2022-10-07T18:37:09.934Z,17.33
2022-10-07T18:39:36.576Z,17.30
2022-10-07T18:42:03.064Z,17.26
2022-10-07T18:44:29.539Z,17.39
2022-10-07T18:46:56.540Z,17.42
2022-10-07T18:49:23.227Z,17.36
2022-10-07T18:51:49.693Z,17.35
2022-10-07T18:54:19.473Z,17.40
2022-10-07T18:56:50.104Z,17.33
2022-10-07T18:59:17.724Z,17.43
2022-10-07T19:01:49.886Z,17.49
2022-10-07T19:04:17.309Z,17.56
2022-10-07T19:06:43.769Z,17.46
2022-10-07T19:09:13.895Z,17.43
2022-10-07T19:11:40.558Z,17.34
2022-10-07T19:14:07.006Z,17.15
2022-10-07T19:16:35.694Z,17.02
2022-10-07T19:19:12.608Z,17.01
2022-10-07T19:21:39.391Z,17.18
2022-10-07T19:24:06.295Z,17.25
2022-10-07T19:26:35.836Z,17.36
2022-10-07T19:29:03.423Z,17.44
2022-10-07T19:31:32.415Z,17.41
2022-10-07T19:34:04.512Z,17.43
2022-10-07T19:36:33.205Z,17.52
2022-10-07T19:39:00.236Z,17.53
2022-10-07T19:41:29.751Z,17.43
2022-10-07T19:43:56.418Z,17.44
2022-10-07T19:46:24.854Z,17.28
2022-10-07T19:48:51.413Z,17.10
2022-10-07T19:51:19.347Z,16.92
2022-10-07T19:53:47.389Z,16.93
2022-10-07T19:56:19.779Z,16.92
2022-10-07T19:58:47.878Z,16.99
2022-10-07T20:01:16.480Z,17.01
2022-10-07T20:03:43.079Z,16.97
2022-10-07T20:06:10.309Z,16.96
2022-10-07T20:08:39.671Z,16.94
2022-10-07T20:11:06.636Z,16.96
2022-10-07T20:13:33.956Z,17.09
2022-10-07T20:16:14.158Z,17.06
2022-10-07T20:18:40.738Z,17.01
2022-10-07T20:21:09.304Z,17.02
2022-10-07T20:23:37.664Z,17.12
2022-10-07T20:26:08.941Z,17.14
2022-10-07T20:28:35.959Z,17.20
2022-10-07T20:31:08.345Z,17.27
2022-10-07T20:33:54.407Z,17.04
2022-10-07T20:36:23.133Z,16.97
2022-10-07T20:39:01.446Z,16.99
2022-10-07T20:41:30.423Z,16.97
2022-10-07T20:43:57.192Z,17.03
2022-10-07T20:46:23.715Z,17.13
2022-10-07T20:48:52.525Z,16.99
2022-10-07T20:51:19.077Z,17.06
2022-10-07T20:53:48.138Z,17.25
2022-10-07T20:56:14.598Z,17.26
2022-10-07T20:58:41.554Z,17.44
2022-10-07T21:01:08.327Z,17.51
2022-10-07T21:03:34.867Z,17.46
2022-10-07T21:06:02.230Z,17.18
2022-10-07T21:08:29.663Z,17.08
2022-10-07T21:11:03.779Z,17.03
2022-10-07T21:13:31.061Z,17.13
2022-10-07T21:15:57.991Z,17.19
2022-10-07T21:18:24.692Z,17.01
2022-10-07T21:20:56.482Z,16.97
2022-10-07T21:23:24.217Z,16.93
2022-10-07T21:25:51.812Z,16.99
2022-10-07T21:28:18.964Z,16.81
2022-10-07T21:30:55.128Z,16.84
2022-10-07T21:33:21.674Z,16.75
2022-10-07T21:35:48.321Z,16.71
2022-10-07T21:38:14.899Z,16.87
2022-10-07T21:40:41.379Z,16.79
2022-10-07T21:43:07.867Z,16.67
2022-10-07T21:45:34.396Z,16.75
2022-10-07T21:48:00.879Z,16.73
2022-10-07T21:50:27.314Z,16.57
2022-10-07T21:52:53.830Z,16.60
2022-10-07T21:55:20.304Z,16.64
2022-10-07T21:57:46.827Z,16.73
2022-10-07T22:00:13.947Z,16.72
2022-10-07T22:02:40.484Z,16.80
2022-10-07T22:05:10.040Z,16.90
2022-10-07T22:07:36.611Z,16.82
2022-10-07T22:10:03.425Z,16.92
2022-10-07T22:12:30.280Z,16.97
2022-10-07T22:14:56.846Z,17.02
2022-10-07T22:17:23.333Z,17.03
2022-10-07T22:19:50.074Z,16.92
2022-10-07T22:22:16.656Z,16.90
2022-10-07T22:24:43.143Z,16.88
2022-10-07T22:27:09.621Z,16.77
2022-10-07T22:29:36.828Z,16.68
2022-10-07T22:32:04.156Z,16.68
2022-10-07T22:34:30.686Z,16.79
2022-10-07T22:36:57.121Z,16.85
2022-10-07T22:39:24.960Z,16.85
2022-10-07T22:41:51.455Z,16.72
2022-10-07T22:44:17.965Z,16.70
2022-10-07T22:46:44.862Z,16.62
2022-10-07T22:49:11.598Z,16.73
2022-10-07T22:51:38.240Z,16.82
2022-10-07T22:54:04.903Z,16.91
2022-10-07T22:56:31.376Z,16.88
2022-10-07T22:58:59.170Z,16.92
2022-10-07T23:01:30.367Z,17.04
2022-10-07T23:03:58.086Z,17.09
2022-10-07T23:06:25.295Z,17.15
2022-10-07T23:08:51.972Z,17.09
2022-10-07T23:11:22.564Z,17.04
2022-10-07T23:13:49.815Z,17.11
2022-10-07T23:16:17.992Z,16.93
2022-10-07T23:18:46.368Z,16.80
2022-10-07T23:21:14.915Z,16.81
2022-10-07T23:23:43.276Z,16.71
2022-10-07T23:26:20.837Z,16.55
2022-10-07T23:28:49.544Z,16.57
2022-10-07T23:31:17.940Z,16.68
2022-10-07T23:33:45.795Z,16.66
2022-10-07T23:36:12.442Z,16.69
2022-10-07T23:38:39.749Z,16.69
2022-10-07T23:41:07.443Z,16.67
2022-10-07T23:43:34.155Z,16.71
2022-10-07T23:46:01.353Z,16.72
2022-10-07T23:48:28.408Z,16.81
2022-10-07T23:50:55.070Z,16.78
2022-10-07T23:53:23.674Z,16.60
2022-10-07T23:55:52.270Z,16.52
2022-10-07T23:58:21.264Z,16.46
